KBTL/BTL METAR and TAF weather

Enter ICAO airport designator
Station Type Date Time Source
KBTL METAR 2022/01/26 07:53 UTC NOAA

KBTL 260753Z AUTO 34006KT 10SM OVC040 M12/M15 A3031 RMK AO2 SNE38 SLP281 P0000 T11171150


Station Type Date Time Source
KBTL Decoded METAR 2022/01/26 07:53 UTC NOAA

W.K.KELLOGG REGIONAL AIRPORT, MI, United States (KBTL) 42-18N 085-15W 290M
Jan 26, 2022 - 02:53 AM EST / 2022.01.26 0753 UTC
Wind: from the NNW (340 degrees) at 7 MPH (6 KT):0
Visibility: 10 mile(s):0
Sky conditions: overcast
Precipitation last hour: A trace
Temperature: 10.9 F (-11.7 C)
Windchill: 0 F (-18 C):1
Dew Point: 5.0 F (-15.0 C)
Relative Humidity: 76%
Pressure (altimeter): 30.31 in. Hg (1026 hPa)
ob: KBTL 260753Z AUTO 34006KT 10SM OVC040 M12/M15 A3031 RMK AO2 SNE38 SLP281 P0000 T11171150
cycle: 8

Station Type Date Time Source
KBTL TAF 2022/01/26 08:58 UTC NOAA

TAF
AMD KBTL 260756Z 2608/2706 34006KT P6SM VCSH OVC040
FM261100 24006KT P6SM SCT060
FM261800 23007KT P6SM BKN035
FM262100 20008KT P6SM SKC

Example: see airport list